sensor_id;sensor_type;location;lat;lon;timestamp;temperature;humidity
68865;DHT22;55898;52.196;4.420;2022-09-12T00:01:40;18.36;76.22
68865;DHT22;55898;52.196;4.420;2022-09-12T00:04:06;18.32;76.47
68865;DHT22;55898;52.196;4.420;2022-09-12T00:06:34;18.32;76.44
68865;DHT22;55898;52.196;4.420;2022-09-12T00:09:04;18.33;76.44
68865;DHT22;55898;52.196;4.420;2022-09-12T00:11:30;18.32;76.33
68865;DHT22;55898;52.196;4.420;2022-09-12T00:13:58;18.30;76.22
68865;DHT22;55898;52.196;4.420;2022-09-12T00:16:27;18.26;76.32
68865;DHT22;55898;52.196;4.420;2022-09-12T00:18:53;18.25;76.53
68865;DHT22;55898;52.196;4.420;2022-09-12T00:21:20;18.22;76.28
68865;DHT22;55898;52.196;4.420;2022-09-12T00:23:46;18.22;76.52
68865;DHT22;55898;52.196;4.420;2022-09-12T06:33:16;17.26;79.05
68865;DHT22;55898;52.196;4.420;2022-09-12T06:35:42;17.30;78.95
68865;DHT22;55898;52.196;4.420;2022-09-12T06:38:08;17.31;78.75
68865;DHT22;55898;52.196;4.420;2022-09-12T06:40:39;17.28;78.79
68865;DHT22;55898;52.196;4.420;2022-09-12T06:43:06;17.28;78.90
68865;DHT22;55898;52.196;4.420;2022-09-12T06:45:32;17.35;79.20
68865;DHT22;55898;52.196;4.420;2022-09-12T06:47:57;17.42;79.36
68865;DHT22;55898;52.196;4.420;2022-09-12T06:50:23;17.51;79.37
68865;DHT22;55898;52.196;4.420;2022-09-12T06:52:49;17.57;79.69
68865;DHT22;55898;52.196;4.420;2022-09-12T06:55:16;17.58;79.45
68865;DHT22;55898;52.196;4.420;2022-09-12T06:57:42;17.65;79.30
68865;DHT22;55898;52.196;4.420;2022-09-12T07:00:08;17.72;79.29
68865;DHT22;55898;52.196;4.420;2022-09-12T07:02:34;17.77;79.03
68865;DHT22;55898;52.196;4.420;2022-09-12T07:05:00;17.79;78.85
68865;DHT22;55898;52.196;4.420;2022-09-12T07:07:25;17.82;78.76
68865;DHT22;55898;52.196;4.420;2022-09-12T07:09:51;17.85;78.56
68865;DHT22;55898;52.196;4.420;2022-09-12T07:12:16;17.93;78.44
68865;DHT22;55898;52.196;4.420;2022-09-12T07:14:42;17.96;78.53
68865;DHT22;55898;52.196;4.420;2022-09-12T07:17:07;18.05;78.34
68865;DHT22;55898;52.196;4.420;2022-09-12T07:19:33;18.09;78.23
68865;DHT22;55898;52.196;4.420;2022-09-12T07:21:59;18.13;78.07
68865;DHT22;55898;52.196;4.420;2022-09-12T07:24:25;18.19;78.18
68865;DHT22;55898;52.196;4.420;2022-09-12T07:26:51;18.19;78.36
68865;DHT22;55898;52.196;4.420;2022-09-12T07:29:16;18.25;78.41
68865;DHT22;55898;52.196;4.420;2022-09-12T07:31:43;18.34;77.98
68865;DHT22;55898;52.196;4.420;2022-09-12T07:34:09;18.37;77.85
68865;DHT22;55898;52.196;4.420;2022-09-12T07:36:34;18.48;77.99
68865;DHT22;55898;52.196;4.420;2022-09-12T07:39:00;18.51;77.74
68865;DHT22;55898;52.196;4.420;2022-09-12T07:41:31;18.56;78.24
68865;DHT22;55898;52.196;4.420;2022-09-12T07:44:01;18.57;77.92
68865;DHT22;55898;52.196;4.420;2022-09-12T07:46:28;18.64;78.03
68865;DHT22;55898;52.196;4.420;2022-09-12T07:48:56;18.68;78.00
68865;DHT22;55898;52.196;4.420;2022-09-12T07:51:24;18.68;78.03
68865;DHT22;55898;52.196;4.420;2022-09-12T07:53:50;18.65;77.59
68865;DHT22;55898;52.196;4.420;2022-09-12T07:56:17;18.72;77.09
68865;DHT22;55898;52.196;4.420;2022-09-12T07:58:44;18.75;76.96
68865;DHT22;55898;52.196;4.420;2022-09-12T08:01:27;18.77;76.96
68865;DHT22;55898;52.196;4.420;2022-09-12T08:03:58;18.85;76.95
68865;DHT22;55898;52.196;4.420;2022-09-12T08:06:26;18.95;77.19
68865;DHT22;55898;52.196;4.420;2022-09-12T08:08:54;19.06;77.05
68865;DHT22;55898;52.196;4.420;2022-09-12T08:11:21;19.09;75.62
68865;DHT22;55898;52.196;4.420;2022-09-12T08:13:47;19.19;75.91
68865;DHT22;55898;52.196;4.420;2022-09-12T08:16:15;19.25;76.24
68865;DHT22;55898;52.196;4.420;2022-09-12T08:18:42;19.36;75.69
68865;DHT22;55898;52.196;4.420;2022-09-12T08:21:20;19.45;74.87
68865;DHT22;55898;52.196;4.420;2022-09-12T08:23:50;19.45;75.18
68865;DHT22;55898;52.196;4.420;2022-09-12T08:26:15;19.54;74.74
68865;DHT22;55898;52.196;4.420;2022-09-12T08:28:44;19.50;74.80
68865;DHT22;55898;52.196;4.420;2022-09-12T08:31:12;19.62;74.67
68865;DHT22;55898;52.196;4.420;2022-09-12T08:33:39;19.63;74.52
68865;DHT22;55898;52.196;4.420;2022-09-12T08:36:19;19.71;73.74
68865;DHT22;55898;52.196;4.420;2022-09-12T08:38:48;19.74;73.38
68865;DHT22;55898;52.196;4.420;2022-09-12T08:52:11;20.08;73.42
68865;DHT22;55898;52.196;4.420;2022-09-12T08:54:39;20.18;72.52
68865;DHT22;55898;52.196;4.420;2022-09-12T08:57:08;20.18;71.80
68865;DHT22;55898;52.196;4.420;2022-09-12T08:59:41;20.20;72.10
68865;DHT22;55898;52.196;4.420;2022-09-12T09:05:11;20.33;71.15
68865;DHT22;55898;52.196;4.420;2022-09-12T09:08:01;20.39;71.14
68865;DHT22;55898;52.196;4.420;2022-09-12T09:16:31;20.68;70.17
68865;DHT22;55898;52.196;4.420;2022-09-12T09:19:02;20.68;69.39
68865;DHT22;55898;52.196;4.420;2022-09-12T09:21:42;20.73;67.96
68865;DHT22;55898;52.196;4.420;2022-09-12T09:24:13;20.75;68.87
68865;DHT22;55898;52.196;4.420;2022-09-12T09:27:05;20.76;68.25
68865;DHT22;55898;52.196;4.420;2022-09-12T09:29:44;20.84;69.85
68865;DHT22;55898;52.196;4.420;2022-09-12T09:32:25;20.90;68.36
68865;DHT22;55898;52.196;4.420;2022-09-12T09:34:51;20.90;67.23
68865;DHT22;55898;52.196;4.420;2022-09-12T09:37:30;21.01;67.80
68865;DHT22;55898;52.196;4.420;2022-09-12T09:43:20;21.18;66.51
68865;DHT22;55898;52.196;4.420;2022-09-12T09:45:48;21.35;67.11
68865;DHT22;55898;52.196;4.420;2022-09-12T09:48:21;21.38;66.04
68865;DHT22;55898;52.196;4.420;2022-09-12T09:50:49;21.42;66.02
68865;DHT22;55898;52.196;4.420;2022-09-12T09:53:33;21.37;65.56
68865;DHT22;55898;52.196;4.420;2022-09-12T09:56:05;21.48;66.14
68865;DHT22;55898;52.196;4.420;2022-09-12T09:58:33;21.42;65.69
68865;DHT22;55898;52.196;4.420;2022-09-12T10:01:19;21.47;67.26
68865;DHT22;55898;52.196;4.420;2022-09-12T10:03:50;21.48;65.42
68865;DHT22;55898;52.196;4.420;2022-09-12T10:08:46;21.48;65.02
68865;DHT22;55898;52.196;4.420;2022-09-12T10:16:25;21.71;63.85
68865;DHT22;55898;52.196;4.420;2022-09-12T10:18:55;21.78;63.82
68865;DHT22;55898;52.196;4.420;2022-09-12T10:21:33;21.83;63.31
68865;DHT22;55898;52.196;4.420;2022-09-12T10:24:13;21.99;61.73
68865;DHT22;55898;52.196;4.420;2022-09-12T10:26:52;22.17;62.33
68865;DHT22;55898;52.196;4.420;2022-09-12T10:29:28;22.30;61.43
68865;DHT22;55898;52.196;4.420;2022-09-12T10:32:02;22.39;61.49
68865;DHT22;55898;52.196;4.420;2022-09-12T10:34:56;22.63;61.05
68865;DHT22;55898;52.196;4.420;2022-09-12T10:37:29;22.75;61.90
68865;DHT22;55898;52.196;4.420;2022-09-12T10:39:58;22.74;60.55
68865;DHT22;55898;52.196;4.420;2022-09-12T10:42:50;22.74;59.73
68865;DHT22;55898;52.196;4.420;2022-09-12T10:45:30;22.65;58.66
68865;DHT22;55898;52.196;4.420;2022-09-12T10:47:59;22.81;60.57
68865;DHT22;55898;52.196;4.420;2022-09-12T10:50:41;22.95;59.11
68865;DHT22;55898;52.196;4.420;2022-09-12T10:53:21;23.04;58.24
68865;DHT22;55898;52.196;4.420;2022-09-12T10:56:11;23.09;58.29
68865;DHT22;55898;52.196;4.420;2022-09-12T10:59:01;23.16;59.78
68865;DHT22;55898;52.196;4.420;2022-09-12T11:07:51;23.43;60.06
68865;DHT22;55898;52.196;4.420;2022-09-12T11:10:39;23.60;58.27
68865;DHT22;55898;52.196;4.420;2022-09-12T11:13:20;23.83;58.60
68865;DHT22;55898;52.196;4.420;2022-09-12T11:19:23;24.26;57.99
68865;DHT22;55898;52.196;4.420;2022-09-12T11:34:54;29.82;41.58
68865;DHT22;55898;52.196;4.420;2022-09-12T11:37:55;30.59;41.59
68865;DHT22;55898;52.196;4.420;2022-09-12T11:43:00;31.97;38.65
68865;DHT22;55898;52.196;4.420;2022-09-12T11:45:41;32.45;37.69
68865;DHT22;55898;52.196;4.420;2022-09-12T11:48:29;32.78;37.00
68865;DHT22;55898;52.196;4.420;2022-09-12T11:50:59;32.68;36.81
68865;DHT22;55898;52.196;4.420;2022-09-12T11:53:33;32.71;38.64
68865;DHT22;55898;52.196;4.420;2022-09-12T11:56:13;32.73;35.42
68865;DHT22;55898;52.196;4.420;2022-09-12T11:58:45;32.69;36.00
68865;DHT22;55898;52.196;4.420;2022-09-12T12:01:27;32.92;38.37
68865;DHT22;55898;52.196;4.420;2022-09-12T12:03:53;32.79;35.47
68865;DHT22;55898;52.196;4.420;2022-09-12T12:06:31;32.72;36.13
68865;DHT22;55898;52.196;4.420;2022-09-12T12:08:58;32.71;35.74
68865;DHT22;55898;52.196;4.420;2022-09-12T12:11:30;32.42;35.85
68865;DHT22;55898;52.196;4.420;2022-09-12T12:14:02;32.35;38.48
68865;DHT22;55898;52.196;4.420;2022-09-12T12:19:03;31.67;37.89
68865;DHT22;55898;52.196;4.420;2022-09-12T12:21:40;31.49;39.54
68865;DHT22;55898;52.196;4.420;2022-09-12T12:27:01;30.63;38.76
68865;DHT22;55898;52.196;4.420;2022-09-12T12:41:58;32.92;35.40
68865;DHT22;55898;52.196;4.420;2022-09-12T12:54:59;32.98;35.95
68865;DHT22;55898;52.196;4.420;2022-09-12T13:02:54;33.51;34.73
68865;DHT22;55898;52.196;4.420;2022-09-12T13:05:25;34.20;33.60
68865;DHT22;55898;52.196;4.420;2022-09-12T13:08:25;34.71;33.38
68865;DHT22;55898;52.196;4.420;2022-09-12T13:11:01;35.14;31.67
68865;DHT22;55898;52.196;4.420;2022-09-12T13:13:48;35.30;32.24
68865;DHT22;55898;52.196;4.420;2022-09-12T13:16:36;35.65;32.09
68865;DHT22;55898;52.196;4.420;2022-09-12T13:19:14;35.55;32.35
68865;DHT22;55898;52.196;4.420;2022-09-12T13:22:02;35.49;30.53
68865;DHT22;55898;52.196;4.420;2022-09-12T13:24:27;35.70;31.61
68865;DHT22;55898;52.196;4.420;2022-09-12T13:26:53;35.45;31.32
68865;DHT22;55898;52.196;4.420;2022-09-12T13:29:21;35.52;29.67
68865;DHT22;55898;52.196;4.420;2022-09-12T13:32:00;35.75;30.90
68865;DHT22;55898;52.196;4.420;2022-09-12T13:34:34;35.27;30.18
68865;DHT22;55898;52.196;4.420;2022-09-12T13:39:48;34.52;31.93
68865;DHT22;55898;52.196;4.420;2022-09-12T13:45:21;33.53;33.97
68865;DHT22;55898;52.196;4.420;2022-09-12T13:47:53;33.46;33.38
68865;DHT22;55898;52.196;4.420;2022-09-12T13:52:52;33.41;35.15
68865;DHT22;55898;52.196;4.420;2022-09-12T13:55:33;33.41;33.48
68865;DHT22;55898;52.196;4.420;2022-09-12T13:58:00;33.94;34.16
68865;DHT22;55898;52.196;4.420;2022-09-12T14:00:26;34.18;32.64
68865;DHT22;55898;52.196;4.420;2022-09-12T14:02:53;33.89;31.95
68865;DHT22;55898;52.196;4.420;2022-09-12T14:05:40;33.39;33.58
68865;DHT22;55898;52.196;4.420;2022-09-12T14:08:11;33.39;34.31
68865;DHT22;55898;52.196;4.420;2022-09-12T14:10:41;33.16;34.84
68865;DHT22;55898;52.196;4.420;2022-09-12T14:13:24;32.89;35.08
68865;DHT22;55898;52.196;4.420;2022-09-12T14:15:53;32.96;36.29
68865;DHT22;55898;52.196;4.420;2022-09-12T14:18:26;33.17;34.83
68865;DHT22;55898;52.196;4.420;2022-09-12T14:20:53;33.54;35.11
68865;DHT22;55898;52.196;4.420;2022-09-12T14:23:26;32.84;36.26
68865;DHT22;55898;52.196;4.420;2022-09-12T14:25:52;32.46;36.38
68865;DHT22;55898;52.196;4.420;2022-09-12T14:28:21;31.84;39.04
68865;DHT22;55898;52.196;4.420;2022-09-12T14:33:51;32.17;38.00
68865;DHT22;55898;52.196;4.420;2022-09-12T14:36:24;32.07;39.41
68865;DHT22;55898;52.196;4.420;2022-09-12T14:39:03;31.97;40.71
68865;DHT22;55898;52.196;4.420;2022-09-12T14:41:39;31.83;40.81
68865;DHT22;55898;52.196;4.420;2022-09-12T14:44:26;31.94;40.71
68865;DHT22;55898;52.196;4.420;2022-09-12T14:46:52;31.84;40.01
68865;DHT22;55898;52.196;4.420;2022-09-12T14:49:26;31.21;41.33
68865;DHT22;55898;52.196;4.420;2022-09-12T14:51:57;30.78;43.17
68865;DHT22;55898;52.196;4.420;2022-09-12T14:59:40;30.96;42.84
68865;DHT22;55898;52.196;4.420;2022-09-12T15:02:20;31.15;42.47
68865;DHT22;55898;52.196;4.420;2022-09-12T15:04:46;31.25;41.87
68865;DHT22;55898;52.196;4.420;2022-09-12T15:07:33;30.91;42.90
68865;DHT22;55898;52.196;4.420;2022-09-12T15:10:16;30.71;44.04
68865;DHT22;55898;52.196;4.420;2022-09-12T15:12:43;30.57;44.24
68865;DHT22;55898;52.196;4.420;2022-09-12T15:15:17;30.51;43.88
68865;DHT22;55898;52.196;4.420;2022-09-12T15:17:42;30.34;44.77
68865;DHT22;55898;52.196;4.420;2022-09-12T15:20:08;30.08;44.90
68865;DHT22;55898;52.196;4.420;2022-09-12T15:22:35;29.75;46.20
68865;DHT22;55898;52.196;4.420;2022-09-12T15:25:02;29.57;46.15
68865;DHT22;55898;52.196;4.420;2022-09-12T15:27:28;29.50;46.40
68865;DHT22;55898;52.196;4.420;2022-09-12T15:29:54;29.18;46.54
68865;DHT22;55898;52.196;4.420;2022-09-12T15:32:25;28.72;48.42
68865;DHT22;55898;52.196;4.420;2022-09-12T15:34:51;28.42;48.00
